createdAt,value
2023-10-03T00:01:08.598Z,66.81
2023-10-03T00:03:35.385Z,65.32
2023-10-03T00:06:02.117Z,64.13
2023-10-03T00:08:28.965Z,67.61
2023-10-03T00:10:55.951Z,65.49
2023-10-03T00:13:23.155Z,64.80
2023-10-03T00:15:49.999Z,58.82
2023-10-03T00:18:18.120Z,65.45
2023-10-03T00:20:44.982Z,64.75
2023-10-03T00:23:11.896Z,64.60
2023-10-03T00:25:39.733Z,63.27
2023-10-03T00:28:07.290Z,72.76
2023-10-03T00:30:37.189Z,66.13
2023-10-03T00:33:06.463Z,65.66
2023-10-03T00:35:35.830Z,58.55
2023-10-03T00:38:06.895Z,64.92
2023-10-03T00:40:33.508Z,63.93
2023-10-03T00:43:01.870Z,68.50
2023-10-03T00:45:30.464Z,64.56
2023-10-03T00:48:02.166Z,66.59
2023-10-03T00:50:30.132Z,66.13
2023-10-03T00:52:59.353Z,63.27
2023-10-03T00:55:27.875Z,72.70
2023-10-03T00:58:07.641Z,61.04
2023-10-03T01:00:38.582Z,70.74
2023-10-03T01:03:10.430Z,66.43
2023-10-03T01:05:38.776Z,65.84
2023-10-03T01:08:08.257Z,71.48
2023-10-03T01:10:35.091Z,66.61
2023-10-03T01:13:09.345Z,65.63
2023-10-03T01:15:36.434Z,65.30
2023-10-03T01:18:04.403Z,59.88
2023-10-03T01:20:41.928Z,67.66
2023-10-03T01:23:11.337Z,65.55
2023-10-03T01:25:44.619Z,65.60
2023-10-03T01:28:11.991Z,64.86
2023-10-03T01:30:42.075Z,64.88
2023-10-03T01:33:10.190Z,64.86
2023-10-03T01:35:37.464Z,70.35
2023-10-03T01:38:06.196Z,72.16
2023-10-03T01:40:34.280Z,67.08
2023-10-03T01:43:00.912Z,65.97
2023-10-03T01:45:29.444Z,65.61
2023-10-03T01:48:00.511Z,65.21
2023-10-03T01:50:32.563Z,59.02
2023-10-03T01:52:59.203Z,72.33
2023-10-03T01:55:25.942Z,67.33
2023-10-03T01:57:53.900Z,65.66
2023-10-03T02:00:29.515Z,64.63
2023-10-03T02:02:58.391Z,66.06
2023-10-03T02:05:26.486Z,73.90
2023-10-03T02:07:56.302Z,67.08
2023-10-03T02:10:23.980Z,66.03
2023-10-03T02:12:51.184Z,65.66
2023-10-03T02:15:26.321Z,71.90
2023-10-03T02:17:54.711Z,67.57
2023-10-03T02:20:22.743Z,66.12
2023-10-03T02:22:55.670Z,66.05
2023-10-03T02:25:25.363Z,66.17
2023-10-03T02:27:54.222Z,76.65
2023-10-03T02:30:30.163Z,74.16
2023-10-03T02:32:59.018Z,72.82
2023-10-03T02:35:26.838Z,67.27
2023-10-03T02:37:57.731Z,60.67
2023-10-03T02:40:28.031Z,72.43
2023-10-03T02:42:55.453Z,67.87
2023-10-03T02:45:24.549Z,66.07
2023-10-03T02:47:57.788Z,65.52
2023-10-03T02:50:25.046Z,70.15
2023-10-03T02:52:52.661Z,69.70
2023-10-03T02:55:19.325Z,66.13
2023-10-03T02:57:46.393Z,66.09
2023-10-03T03:00:15.600Z,65.97
2023-10-03T03:02:49.298Z,65.96
2023-10-03T03:05:16.929Z,65.24
2023-10-03T03:07:45.576Z,65.39
2023-10-03T03:10:15.690Z,59.13
2023-10-03T03:12:44.261Z,68.76
2023-10-03T03:15:12.267Z,66.34
2023-10-03T03:17:42.048Z,65.72
2023-10-03T03:20:22.066Z,63.37
2023-10-03T03:22:49.675Z,66.44
2023-10-03T03:25:25.980Z,65.48
2023-10-03T03:27:56.048Z,65.84
2023-10-03T03:30:28.499Z,65.51
2023-10-03T03:32:55.788Z,65.08
2023-10-03T03:35:23.952Z,65.37
2023-10-03T03:37:50.604Z,59.08
2023-10-03T03:40:30.822Z,70.32
2023-10-03T03:42:59.119Z,73.47
2023-10-03T03:45:27.179Z,68.60
2023-10-03T03:47:53.951Z,66.64
2023-10-03T03:50:21.729Z,66.14
2023-10-03T03:52:50.424Z,65.72
2023-10-03T03:55:20.072Z,66.01
2023-10-03T03:57:46.917Z,65.57
2023-10-03T04:00:21.594Z,65.44
2023-10-03T04:02:49.776Z,66.39
2023-10-03T04:05:18.910Z,69.16
2023-10-03T04:07:45.791Z,69.06
2023-10-03T04:10:14.980Z,66.62
2023-10-03T04:12:44.542Z,66.06
2023-10-03T04:15:19.624Z,65.65
2023-10-03T04:17:50.313Z,65.26
2023-10-03T04:20:26.528Z,64.17
2023-10-03T04:22:53.576Z,72.57
2023-10-03T04:25:22.242Z,66.87
2023-10-03T04:27:50.027Z,67.50
2023-10-03T04:30:17.536Z,66.50
2023-10-03T04:32:44.598Z,62.95
2023-10-03T04:35:19.290Z,71.66
2023-10-03T04:37:53.163Z,63.76
2023-10-03T04:40:36.252Z,69.26
2023-10-03T04:43:15.879Z,66.46
2023-10-03T04:45:43.183Z,66.40
2023-10-03T04:48:13.556Z,66.37
2023-10-03T04:50:41.923Z,66.10
2023-10-03T04:53:15.467Z,65.98
2023-10-03T04:55:49.322Z,63.18
2023-10-03T04:58:16.673Z,73.39
2023-10-03T05:00:43.904Z,67.79
2023-10-03T05:03:11.096Z,61.80
2023-10-03T05:05:38.508Z,71.98
2023-10-03T05:08:06.097Z,67.58
2023-10-03T05:10:34.735Z,69.25
2023-10-03T05:13:03.228Z,66.79
2023-10-03T05:15:31.176Z,65.71
2023-10-03T05:18:01.872Z,67.40
2023-10-03T05:20:42.187Z,66.32
2023-10-03T05:23:09.050Z,66.35
2023-10-03T05:25:38.918Z,66.49
2023-10-03T05:28:07.361Z,61.96
2023-10-03T05:30:36.415Z,71.65
2023-10-03T05:33:05.744Z,78.84
2023-10-03T05:35:32.651Z,71.59
2023-10-03T05:37:59.554Z,65.19
2023-10-03T05:40:26.351Z,66.97
2023-10-03T05:42:53.574Z,63.05
2023-10-03T05:45:21.756Z,67.46
2023-10-03T05:47:50.012Z,66.49
2023-10-03T05:50:21.780Z,66.52
2023-10-03T05:52:49.092Z,66.06
2023-10-03T05:55:16.150Z,66.30
2023-10-03T05:57:44.328Z,66.23
2023-10-03T06:00:17.405Z,66.20
2023-10-03T06:02:48.240Z,71.44
2023-10-03T06:05:18.287Z,67.80
2023-10-03T06:07:46.446Z,67.10
2023-10-03T06:10:14.588Z,71.92
2023-10-03T06:12:41.946Z,72.97
2023-10-03T06:15:10.079Z,69.62
2023-10-03T06:17:36.794Z,67.14
2023-10-03T06:20:07.425Z,74.77
2023-10-03T06:22:34.509Z,69.58
2023-10-03T06:25:01.372Z,74.20
2023-10-03T06:27:28.442Z,70.04
2023-10-03T06:29:55.388Z,71.13
2023-10-03T06:32:22.394Z,73.43
2023-10-03T06:34:49.110Z,68.67
2023-10-03T06:37:17.572Z,73.09
2023-10-03T06:39:44.290Z,69.36
2023-10-03T06:42:11.609Z,74.43
2023-10-03T06:44:38.597Z,71.87
2023-10-03T06:47:05.614Z,66.40
2023-10-03T06:49:32.666Z,76.36
2023-10-03T06:52:02.982Z,71.72
2023-10-03T06:54:31.046Z,61.93
2023-10-03T06:56:57.927Z,65.87
2023-10-03T06:59:24.702Z,67.22
2023-10-03T07:01:51.929Z,68.19
2023-10-03T07:04:19.902Z,70.49
2023-10-03T07:06:47.169Z,69.27
2023-10-03T07:09:15.321Z,72.92
2023-10-03T07:11:43.427Z,70.41
2023-10-03T07:14:12.879Z,71.01
2023-10-03T07:16:40.247Z,69.05
2023-10-03T07:19:07.042Z,66.01
2023-10-03T07:21:37.252Z,70.05
2023-10-03T07:24:05.193Z,70.64
2023-10-03T07:26:33.358Z,66.44
2023-10-03T07:29:03.432Z,64.07
2023-10-03T07:31:33.343Z,63.24
2023-10-03T07:34:00.538Z,65.28
2023-10-03T07:36:27.254Z,63.69
2023-10-03T07:38:53.969Z,63.93
2023-10-03T07:41:22.431Z,66.33
2023-10-03T07:43:49.172Z,68.55
2023-10-03T07:46:24.997Z,71.15
2023-10-03T07:48:54.333Z,66.33
2023-10-03T07:51:27.178Z,61.53
2023-10-03T07:53:54.342Z,64.02
2023-10-03T07:56:34.981Z,56.85
2023-10-03T07:59:06.438Z,52.82
2023-10-03T08:01:53.761Z,52.23
2023-10-03T08:04:25.638Z,51.04
2023-10-03T08:06:52.439Z,49.35
2023-10-03T08:09:19.133Z,50.99
2023-10-03T08:11:48.316Z,49.89
2023-10-03T08:14:15.349Z,49.47
2023-10-03T08:16:44.297Z,49.78
2023-10-03T08:19:22.602Z,47.89
2023-10-03T08:21:49.825Z,47.53
2023-10-03T08:24:20.327Z,43.24
2023-10-03T08:26:48.018Z,45.14
2023-10-03T08:29:24.296Z,42.85
2023-10-03T08:32:00.085Z,40.33
2023-10-03T08:34:27.052Z,40.88
2023-10-03T08:37:00.491Z,42.09
2023-10-03T08:39:28.073Z,41.88
2023-10-03T08:42:12.546Z,41.50
2023-10-03T08:44:51.149Z,44.77
2023-10-03T08:47:21.409Z,51.33
2023-10-03T08:50:00.229Z,51.14
2023-10-03T08:52:40.743Z,49.76
2023-10-03T08:55:09.737Z,47.59
2023-10-03T08:57:41.258Z,48.20
2023-10-03T09:00:10.852Z,43.41
2023-10-03T09:02:49.821Z,44.43
2023-10-03T09:05:21.568Z,42.52
2023-10-03T09:07:48.983Z,42.22
2023-10-03T09:10:23.981Z,40.61
2023-10-03T09:12:51.377Z,39.77
2023-10-03T09:15:23.648Z,37.68
2023-10-03T09:17:54.056Z,38.80
2023-10-03T09:20:22.380Z,37.41
2023-10-03T09:22:49.673Z,41.25
2023-10-03T09:25:22.859Z,37.79
2023-10-03T09:27:49.633Z,36.88
2023-10-03T09:30:25.600Z,37.21
2023-10-03T09:32:55.164Z,39.35
2023-10-03T09:35:22.303Z,38.19
2023-10-03T09:37:51.703Z,36.54
2023-10-03T09:40:19.163Z,35.36
2023-10-03T09:42:49.844Z,38.47
2023-10-03T09:45:19.154Z,40.05
2023-10-03T09:47:47.069Z,37.00
2023-10-03T09:50:15.393Z,34.36
2023-10-03T09:52:51.280Z,35.79
2023-10-03T09:55:22.301Z,34.67
2023-10-03T09:57:53.408Z,35.66
2023-10-03T10:00:47.766Z,33.85
2023-10-03T10:03:29.576Z,35.82
2023-10-03T10:06:17.119Z,37.64
2023-10-03T10:08:49.793Z,42.76
2023-10-03T10:11:16.537Z,39.14
2023-10-03T10:14:09.693Z,40.97
2023-10-03T10:16:36.828Z,37.16
2023-10-03T10:19:05.346Z,30.29
2023-10-03T10:21:38.522Z,32.77
2023-10-03T10:24:28.893Z,40.20
2023-10-03T10:26:56.306Z,37.51
2023-10-03T10:29:25.603Z,37.62
2023-10-03T10:31:59.269Z,38.21
2023-10-03T10:34:41.386Z,33.69
2023-10-03T10:37:11.246Z,37.53
2023-10-03T10:40:11.771Z,36.86
2023-10-03T10:43:05.631Z,41.41
2023-10-03T10:45:40.029Z,40.07
2023-10-03T10:48:08.144Z,38.72
2023-10-03T10:51:09.082Z,39.83
2023-10-03T10:53:45.728Z,41.23
2023-10-03T10:56:14.145Z,40.11
2023-10-03T10:58:52.268Z,43.14
2023-10-03T11:01:19.631Z,44.01
2023-10-03T11:03:46.698Z,44.66
2023-10-03T11:06:17.481Z,42.48
2023-10-03T11:08:49.094Z,40.37
2023-10-03T11:11:16.255Z,46.35
2023-10-03T11:13:47.830Z,44.67
2023-10-03T11:16:26.342Z,45.29
2023-10-03T11:18:55.927Z,47.24
2023-10-03T11:21:24.208Z,43.26
2023-10-03T11:24:14.823Z,44.13
2023-10-03T11:26:49.617Z,39.40
2023-10-03T11:29:34.649Z,37.89
2023-10-03T11:32:02.503Z,34.38
2023-10-03T11:34:30.807Z,35.45
2023-10-03T11:36:57.491Z,36.11
2023-10-03T11:39:27.394Z,43.78
2023-10-03T11:41:54.081Z,42.29
2023-10-03T11:44:21.981Z,36.84
2023-10-03T11:46:49.756Z,36.10
2023-10-03T11:49:17.073Z,36.88
2023-10-03T11:51:44.872Z,38.81
2023-10-03T11:54:12.161Z,36.68
2023-10-03T11:56:48.180Z,37.43
2023-10-03T11:59:16.403Z,36.11
2023-10-03T12:01:44.215Z,35.14
2023-10-03T12:04:11.972Z,43.29
2023-10-03T12:06:38.836Z,39.82
2023-10-03T12:09:10.231Z,37.32
2023-10-03T12:11:38.644Z,42.42
2023-10-03T12:14:06.705Z,38.16
2023-10-03T12:16:33.587Z,39.07
2023-10-03T12:19:00.411Z,44.45
2023-10-03T12:21:27.294Z,44.64
2023-10-03T12:23:54.077Z,43.74
2023-10-03T12:26:27.803Z,41.16
2023-10-03T12:28:55.133Z,37.80
2023-10-03T12:31:30.054Z,39.06
2023-10-03T12:33:57.113Z,46.55
2023-10-03T12:36:24.013Z,45.25
2023-10-03T12:38:50.848Z,41.66
2023-10-03T12:41:17.788Z,42.00
2023-10-03T12:43:47.670Z,39.88
2023-10-03T12:46:15.118Z,48.26
2023-10-03T12:48:43.504Z,45.23
2023-10-03T12:51:10.348Z,41.39
2023-10-03T12:53:37.590Z,42.20
2023-10-03T12:56:05.053Z,48.70
2023-10-03T12:58:32.760Z,46.48
2023-10-03T13:00:59.507Z,52.36
2023-10-03T13:03:26.578Z,54.43
2023-10-03T13:05:57.127Z,45.63
2023-10-03T13:08:26.165Z,50.72
2023-10-03T13:10:55.081Z,52.70
2023-10-03T13:13:22.736Z,47.86
2023-10-03T13:15:51.074Z,45.89
2023-10-03T13:18:18.093Z,54.52
2023-10-03T13:20:46.457Z,56.70
2023-10-03T13:23:14.611Z,55.70
2023-10-03T13:25:41.345Z,56.84
2023-10-03T13:28:11.845Z,54.81
2023-10-03T13:30:39.091Z,47.34
2023-10-03T13:33:05.854Z,48.71
2023-10-03T13:35:34.611Z,47.85
2023-10-03T13:38:01.440Z,48.92
2023-10-03T13:40:29.470Z,51.26
2023-10-03T13:42:58.776Z,54.86
2023-10-03T13:45:25.552Z,55.57
2023-10-03T13:47:52.439Z,53.09
2023-10-03T13:50:19.629Z,55.65
2023-10-03T13:52:48.324Z,54.48
2023-10-03T13:55:19.436Z,52.99
2023-10-03T13:57:49.219Z,49.79
2023-10-03T14:00:16.520Z,51.35
2023-10-03T14:02:48.393Z,47.94
2023-10-03T14:05:17.637Z,50.77
2023-10-03T14:07:44.514Z,47.76
2023-10-03T14:10:14.526Z,51.49
2023-10-03T14:12:41.691Z,49.38
2023-10-03T14:15:21.559Z,51.61
2023-10-03T14:17:49.037Z,54.45
2023-10-03T14:20:17.290Z,48.70
2023-10-03T14:22:44.272Z,48.69
2023-10-03T14:25:13.676Z,55.19
2023-10-03T14:27:42.786Z,56.36
2023-10-03T14:30:12.360Z,49.49
2023-10-03T14:32:41.739Z,47.66
2023-10-03T14:35:09.561Z,51.98
2023-10-03T14:37:36.446Z,55.59
2023-10-03T14:40:10.112Z,48.86
2023-10-03T14:42:37.560Z,47.04
2023-10-03T14:45:05.756Z,54.57
2023-10-03T14:47:34.172Z,55.31
2023-10-03T14:50:01.256Z,58.64
2023-10-03T14:52:27.954Z,59.50
2023-10-03T14:54:54.584Z,58.51
2023-10-03T14:57:21.606Z,60.52
2023-10-03T14:59:50.305Z,49.09
2023-10-03T15:02:17.032Z,53.81
2023-10-03T15:04:46.694Z,52.72
2023-10-03T15:07:17.887Z,59.80
2023-10-03T15:09:45.326Z,57.25
2023-10-03T15:12:12.342Z,58.05
2023-10-03T15:14:39.186Z,53.57
2023-10-03T15:17:06.088Z,60.70
2023-10-03T15:19:35.439Z,49.97
2023-10-03T15:22:06.422Z,52.69
2023-10-03T15:24:33.158Z,60.84
2023-10-03T15:26:59.872Z,60.58
2023-10-03T15:29:26.575Z,60.86
2023-10-03T15:31:54.612Z,56.25
2023-10-03T15:34:29.169Z,61.13
2023-10-03T15:36:55.889Z,58.70
2023-10-03T15:39:24.013Z,54.01
2023-10-03T15:41:51.216Z,56.38
2023-10-03T15:44:21.010Z,55.49
2023-10-03T15:46:48.744Z,53.64
2023-10-03T15:49:15.863Z,51.15
2023-10-03T15:51:42.647Z,59.39
2023-10-03T15:54:10.080Z,57.49
2023-10-03T15:56:38.533Z,57.69
2023-10-03T15:59:05.692Z,55.81
2023-10-03T16:01:32.487Z,58.01
2023-10-03T16:03:59.646Z,58.80
2023-10-03T16:06:27.499Z,57.78
2023-10-03T16:08:54.848Z,58.96
2023-10-03T16:11:22.004Z,56.22
2023-10-03T16:13:49.947Z,60.72
2023-10-03T16:16:17.000Z,61.52
2023-10-03T16:18:47.975Z,61.92
2023-10-03T16:21:15.010Z,57.84
2023-10-03T16:23:41.718Z,57.42
2023-10-03T16:26:08.372Z,61.93
2023-10-03T16:28:36.228Z,55.95
2023-10-03T16:31:06.033Z,59.91
2023-10-03T16:33:33.857Z,59.64
2023-10-03T16:36:00.732Z,54.01
2023-10-03T16:38:27.510Z,54.97
2023-10-03T16:40:54.161Z,58.25
2023-10-03T16:43:20.839Z,56.90
2023-10-03T16:45:48.312Z,56.54
2023-10-03T16:48:16.502Z,62.35
2023-10-03T16:50:43.432Z,57.85
2023-10-03T16:53:10.111Z,56.17
2023-10-03T16:55:36.865Z,55.70
2023-10-03T16:58:04.654Z,61.95
2023-10-03T17:00:31.855Z,55.20
2023-10-03T17:03:00.212Z,56.32
2023-10-03T17:05:30.639Z,57.65
2023-10-03T17:07:58.566Z,61.78
2023-10-03T17:10:25.381Z,61.77
2023-10-03T17:12:52.388Z,62.35
2023-10-03T17:15:19.124Z,62.27
2023-10-03T17:17:51.160Z,62.72
2023-10-03T17:20:19.001Z,57.95
2023-10-03T17:22:47.069Z,57.40
2023-10-03T17:25:13.677Z,57.76
2023-10-03T17:27:41.781Z,63.04
2023-10-03T17:30:10.282Z,62.71
2023-10-03T17:32:36.978Z,62.01
2023-10-03T17:35:06.516Z,62.72
2023-10-03T17:37:33.375Z,58.23
2023-10-03T17:40:01.392Z,62.75
2023-10-03T17:42:30.455Z,59.14
2023-10-03T17:44:57.512Z,59.96
2023-10-03T17:47:28.918Z,61.71
2023-10-03T17:49:57.337Z,58.98
2023-10-03T17:52:24.135Z,59.62
2023-10-03T17:54:50.777Z,58.83
2023-10-03T17:57:18.992Z,59.50
2023-10-03T18:00:00.358Z,58.95
2023-10-03T18:02:31.522Z,60.47
2023-10-03T18:04:58.173Z,62.93
2023-10-03T18:07:24.824Z,59.54
2023-10-03T18:09:51.710Z,62.43
2023-10-03T18:12:19.709Z,59.96
2023-10-03T18:14:47.132Z,61.84
2023-10-03T18:17:13.837Z,62.99
2023-10-03T18:19:41.292Z,59.54
2023-10-03T18:22:08.101Z,63.08
2023-10-03T18:24:37.366Z,62.57
2023-10-03T18:27:04.573Z,63.36
2023-10-03T18:29:32.566Z,63.37
2023-10-03T18:31:59.425Z,64.14
2023-10-03T18:34:26.036Z,62.68
2023-10-03T18:36:52.966Z,64.68
2023-10-03T18:39:20.662Z,64.77
2023-10-03T18:41:47.357Z,64.02
2023-10-03T18:44:16.625Z,67.53
2023-10-03T18:46:45.134Z,63.83
2023-10-03T18:49:13.859Z,70.73
2023-10-03T18:51:40.631Z,68.93
2023-10-03T18:54:07.448Z,66.32
2023-10-03T18:56:34.645Z,68.10
2023-10-03T18:59:01.681Z,67.77
2023-10-03T19:01:46.009Z,68.08
2023-10-03T19:04:17.117Z,65.17
2023-10-03T19:06:44.072Z,64.49
2023-10-03T19:09:13.824Z,64.38
2023-10-03T19:11:41.144Z,69.41
2023-10-03T19:14:07.793Z,65.13
2023-10-03T19:16:35.106Z,64.43
2023-10-03T19:19:02.137Z,64.65
2023-10-03T19:21:32.452Z,64.68
2023-10-03T19:23:59.136Z,64.47
2023-10-03T19:26:25.795Z,68.87
2023-10-03T19:28:52.475Z,68.89
2023-10-03T19:31:20.041Z,67.90
2023-10-03T19:33:47.479Z,67.18
2023-10-03T19:36:15.072Z,62.82
2023-10-03T19:38:44.123Z,65.63
2023-10-03T19:41:13.140Z,64.96
2023-10-03T19:43:40.650Z,64.75
2023-10-03T19:46:10.633Z,64.79
2023-10-03T19:48:37.342Z,65.00
2023-10-03T19:51:07.167Z,64.42
2023-10-03T19:53:33.934Z,64.70
2023-10-03T19:56:12.352Z,64.52
2023-10-03T19:58:40.955Z,64.11
2023-10-03T20:01:07.649Z,64.55
2023-10-03T20:03:34.841Z,64.39
2023-10-03T20:06:01.622Z,64.21
2023-10-03T20:08:29.212Z,64.20
2023-10-03T20:10:55.948Z,63.63
2023-10-03T20:13:23.975Z,64.45
2023-10-03T20:15:50.996Z,64.03
2023-10-03T20:18:17.903Z,64.17
2023-10-03T20:20:44.787Z,64.36
2023-10-03T20:23:12.492Z,64.20
2023-10-03T20:25:41.068Z,64.14
2023-10-03T20:28:07.824Z,63.55
2023-10-03T20:30:36.290Z,64.51
2023-10-03T20:33:03.337Z,63.98
2023-10-03T20:35:30.053Z,63.98
2023-10-03T20:37:57.240Z,63.87
2023-10-03T20:40:24.108Z,64.01
2023-10-03T20:42:50.726Z,63.95
2023-10-03T20:45:17.528Z,63.71
2023-10-03T20:47:45.560Z,63.96
2023-10-03T20:50:12.396Z,64.57
2023-10-03T20:52:39.495Z,64.66
2023-10-03T20:55:08.244Z,64.00
2023-10-03T20:57:34.980Z,63.73
2023-10-03T21:00:03.972Z,63.79
2023-10-03T21:02:30.861Z,64.37
2023-10-03T21:04:59.979Z,63.74
2023-10-03T21:07:26.695Z,64.32
2023-10-03T21:09:55.299Z,63.83
2023-10-03T21:12:23.667Z,65.23
2023-10-03T21:14:50.969Z,63.83
2023-10-03T21:17:17.722Z,63.72
2023-10-03T21:19:44.527Z,59.09
2023-10-03T21:22:12.543Z,57.45
2023-10-03T21:24:39.189Z,63.79
2023-10-03T21:27:05.839Z,63.72
2023-10-03T21:29:33.750Z,64.34
2023-10-03T21:32:00.446Z,61.43
2023-10-03T21:34:27.273Z,63.06
2023-10-03T21:36:55.385Z,63.21
2023-10-03T21:39:23.444Z,63.39
2023-10-03T21:41:50.326Z,53.36
2023-10-03T21:44:17.047Z,63.31
2023-10-03T21:46:43.994Z,63.17
2023-10-03T21:49:10.834Z,63.12
2023-10-03T21:51:38.548Z,62.97
2023-10-03T21:54:05.551Z,63.31
2023-10-03T21:56:33.624Z,63.19
2023-10-03T21:59:01.682Z,63.08
2023-10-03T22:01:28.608Z,63.28
2023-10-03T22:03:55.476Z,58.57
2023-10-03T22:06:22.713Z,63.21
2023-10-03T22:08:49.922Z,63.28
2023-10-03T22:11:19.033Z,63.62
2023-10-03T22:13:47.121Z,62.88
2023-10-03T22:16:17.412Z,63.42
2023-10-03T22:18:45.085Z,63.12
2023-10-03T22:21:16.197Z,62.89
2023-10-03T22:23:42.858Z,62.97
2023-10-03T22:26:10.281Z,63.37
2023-10-03T22:28:37.070Z,63.35
2023-10-03T22:31:05.038Z,62.64
2023-10-03T22:33:31.704Z,63.15
2023-10-03T22:36:00.138Z,63.28
2023-10-03T22:38:27.028Z,63.17
2023-10-03T22:40:54.103Z,63.29
2023-10-03T22:43:20.808Z,63.11
2023-10-03T22:45:47.717Z,58.19
2023-10-03T22:48:15.913Z,63.34
2023-10-03T22:50:42.715Z,63.23
2023-10-03T22:53:11.262Z,62.90
2023-10-03T22:55:38.664Z,63.06
2023-10-03T22:58:05.289Z,62.94
2023-10-03T23:00:32.080Z,63.17
2023-10-03T23:03:00.946Z,62.94
2023-10-03T23:05:29.988Z,62.89
2023-10-03T23:07:56.777Z,62.59
2023-10-03T23:10:24.322Z,62.46
2023-10-03T23:12:51.167Z,62.66
2023-10-03T23:15:18.563Z,62.70
2023-10-03T23:17:45.308Z,62.83
2023-10-03T23:20:12.545Z,62.79
2023-10-03T23:22:40.650Z,62.65
2023-10-03T23:25:09.473Z,63.07
2023-10-03T23:27:36.210Z,62.50
2023-10-03T23:30:03.162Z,62.47
2023-10-03T23:32:32.736Z,62.55
2023-10-03T23:34:59.829Z,62.50
2023-10-03T23:37:26.938Z,62.43
2023-10-03T23:39:54.979Z,62.63
2023-10-03T23:42:23.480Z,62.42
2023-10-03T23:44:51.596Z,62.42
2023-10-03T23:47:18.839Z,62.05
2023-10-03T23:49:45.556Z,62.23
2023-10-03T23:52:15.173Z,64.85
2023-10-03T23:54:42.128Z,59.18
2023-10-03T23:57:18.236Z,62.33
2023-10-03T23:59:45.508Z,62.18
